sensor_id;sensor_type;location;lat;lon;timestamp;P1;durP1;ratioP1;P2;durP2;ratioP2
46437;SDS011;32137;48.728;9.142;2023-05-01T00:01:36;48.83;;;22.45;;
46437;SDS011;32137;48.728;9.142;2023-05-01T00:04:01;9.93;;;8.32;;
46437;SDS011;32137;48.728;9.142;2023-05-01T00:06:27;9.40;;;7.78;;
46437;SDS011;32137;48.728;9.142;2023-05-01T00:08:53;10.90;;;7.88;;
46437;SDS011;32137;48.728;9.142;2023-05-01T00:11:18;12.77;;;7.72;;
46437;SDS011;32137;48.728;9.142;2023-05-01T00:13:44;14.02;;;7.00;;
46437;SDS011;32137;48.728;9.142;2023-05-01T00:16:10;13.57;;;7.70;;
46437;SDS011;32137;48.728;9.142;2023-05-01T00:18:36;13.35;;;8.10;;
46437;SDS011;32137;48.728;9.142;2023-05-01T00:21:02;12.48;;;8.23;;
46437;SDS011;32137;48.728;9.142;2023-05-01T00:23:28;15.48;;;9.48;;
46437;SDS011;32137;48.728;9.142;2023-05-01T00:25:53;12.85;;;7.93;;
46437;SDS011;32137;48.728;9.142;2023-05-01T00:28:19;9.25;;;6.97;;
46437;SDS011;32137;48.728;9.142;2023-05-01T00:30:44;12.02;;;6.72;;
46437;SDS011;32137;48.728;9.142;2023-05-01T00:33:11;10.98;;;7.45;;
46437;SDS011;32137;48.728;9.142;2023-05-01T00:35:36;11.02;;;8.20;;
46437;SDS011;32137;48.728;9.142;2023-05-01T00:38:02;12.10;;;8.13;;
46437;SDS011;32137;48.728;9.142;2023-05-01T00:40:28;11.85;;;8.63;;
46437;SDS011;32137;48.728;9.142;2023-05-01T00:42:53;11.90;;;8.50;;
46437;SDS011;32137;48.728;9.142;2023-05-01T00:45:19;11.15;;;8.43;;
46437;SDS011;32137;48.728;9.142;2023-05-01T00:47:45;11.90;;;8.52;;
46437;SDS011;32137;48.728;9.142;2023-05-01T00:50:11;15.77;;;9.25;;
46437;SDS011;32137;48.728;9.142;2023-05-01T00:52:37;11.35;;;7.50;;
46437;SDS011;32137;48.728;9.142;2023-05-01T00:55:03;10.45;;;8.57;;
46437;SDS011;32137;48.728;9.142;2023-05-01T00:57:29;9.80;;;7.55;;
46437;SDS011;32137;48.728;9.142;2023-05-01T00:59:56;14.05;;;8.55;;
46437;SDS011;32137;48.728;9.142;2023-05-01T01:02:22;13.60;;;8.57;;
46437;SDS011;32137;48.728;9.142;2023-05-01T01:04:47;12.93;;;7.57;;
46437;SDS011;32137;48.728;9.142;2023-05-01T01:12:38;38.17;;;21.77;;
46437;SDS011;32137;48.728;9.142;2023-05-01T01:15:32;19.67;;;10.65;;
46437;SDS011;32137;48.728;9.142;2023-05-01T01:20:53;11.93;;;9.02;;
46437;SDS011;32137;48.728;9.142;2023-05-01T01:29:01;12.45;;;8.75;;
46437;SDS011;32137;48.728;9.142;2023-05-01T01:34:30;10.13;;;8.23;;
46437;SDS011;32137;48.728;9.142;2023-05-01T01:37:03;12.65;;;8.40;;
46437;SDS011;32137;48.728;9.142;2023-05-01T01:42:25;13.68;;;9.10;;
46437;SDS011;32137;48.728;9.142;2023-05-01T01:44:57;13.32;;;8.10;;
46437;SDS011;32137;48.728;9.142;2023-05-01T01:47:29;10.75;;;8.27;;
46437;SDS011;32137;48.728;9.142;2023-05-01T01:49:57;12.82;;;9.20;;
46437;SDS011;32137;48.728;9.142;2023-05-01T01:52:28;13.35;;;8.45;;
46437;SDS011;32137;48.728;9.142;2023-05-01T01:54:57;10.98;;;7.32;;
46437;SDS011;32137;48.728;9.142;2023-05-01T01:57:29;10.27;;;7.78;;
46437;SDS011;32137;48.728;9.142;2023-05-01T01:59:55;9.95;;;7.68;;
46437;SDS011;32137;48.728;9.142;2023-05-01T02:02:21;9.10;;;7.72;;
46437;SDS011;32137;48.728;9.142;2023-05-01T02:04:48;11.00;;;7.70;;
46437;SDS011;32137;48.728;9.142;2023-05-01T02:07:16;12.98;;;7.03;;
46437;SDS011;32137;48.728;9.142;2023-05-01T02:09:43;9.35;;;7.65;;
46437;SDS011;32137;48.728;9.142;2023-05-01T02:12:10;12.13;;;8.10;;
46437;SDS011;32137;48.728;9.142;2023-05-01T02:14:36;13.20;;;7.82;;
46437;SDS011;32137;48.728;9.142;2023-05-01T02:17:03;9.90;;;6.90;;
46437;SDS011;32137;48.728;9.142;2023-05-01T02:19:29;12.15;;;8.10;;
46437;SDS011;32137;48.728;9.142;2023-05-01T02:21:57;12.32;;;8.30;;
46437;SDS011;32137;48.728;9.142;2023-05-01T02:24:24;11.43;;;8.02;;
46437;SDS011;32137;48.728;9.142;2023-05-01T02:26:56;10.70;;;8.00;;
46437;SDS011;32137;48.728;9.142;2023-05-01T02:29:25;10.18;;;8.00;;
46437;SDS011;32137;48.728;9.142;2023-05-01T02:31:52;14.60;;;9.35;;
46437;SDS011;32137;48.728;9.142;2023-05-01T02:34:17;11.35;;;8.10;;
46437;SDS011;32137;48.728;9.142;2023-05-01T02:36:43;10.75;;;7.47;;
46437;SDS011;32137;48.728;9.142;2023-05-01T02:39:08;12.82;;;8.90;;
46437;SDS011;32137;48.728;9.142;2023-05-01T02:41:34;11.73;;;7.90;;
46437;SDS011;32137;48.728;9.142;2023-05-01T02:44:02;9.88;;;7.32;;
46437;SDS011;32137;48.728;9.142;2023-05-01T02:46:34;14.07;;;8.85;;
46437;SDS011;32137;48.728;9.142;2023-05-01T02:49:01;12.88;;;7.93;;
46437;SDS011;32137;48.728;9.142;2023-05-01T02:51:28;9.90;;;7.82;;
46437;SDS011;32137;48.728;9.142;2023-05-01T02:53:56;12.73;;;8.40;;
46437;SDS011;32137;48.728;9.142;2023-05-01T02:56:24;14.02;;;8.15;;
46437;SDS011;32137;48.728;9.142;2023-05-01T02:58:51;8.38;;;7.18;;
46437;SDS011;32137;48.728;9.142;2023-05-01T03:01:17;10.20;;;7.70;;
46437;SDS011;32137;48.728;9.142;2023-05-01T03:03:43;11.02;;;7.45;;
46437;SDS011;32137;48.728;9.142;2023-05-01T03:06:09;11.63;;;7.43;;
46437;SDS011;32137;48.728;9.142;2023-05-01T03:08:34;11.63;;;7.45;;
46437;SDS011;32137;48.728;9.142;2023-05-01T03:11:03;11.50;;;7.78;;
46437;SDS011;32137;48.728;9.142;2023-05-01T03:13:29;11.52;;;7.93;;
46437;SDS011;32137;48.728;9.142;2023-05-01T03:15:55;13.60;;;8.27;;
46437;SDS011;32137;48.728;9.142;2023-05-01T03:18:21;11.00;;;7.65;;
46437;SDS011;32137;48.728;9.142;2023-05-01T03:20:52;8.43;;;7.47;;
46437;SDS011;32137;48.728;9.142;2023-05-01T03:23:18;10.23;;;8.13;;
46437;SDS011;32137;48.728;9.142;2023-05-01T03:25:45;11.27;;;8.07;;
46437;SDS011;32137;48.728;9.142;2023-05-01T03:28:10;10.55;;;7.97;;
46437;SDS011;32137;48.728;9.142;2023-05-01T03:30:36;10.15;;;7.63;;
46437;SDS011;32137;48.728;9.142;2023-05-01T03:33:02;11.70;;;8.32;;
46437;SDS011;32137;48.728;9.142;2023-05-01T03:35:27;13.05;;;8.32;;
46437;SDS011;32137;48.728;9.142;2023-05-01T03:37:53;13.85;;;8.40;;
46437;SDS011;32137;48.728;9.142;2023-05-01T03:40:19;16.13;;;9.93;;
46437;SDS011;32137;48.728;9.142;2023-05-01T03:42:44;11.45;;;8.93;;
46437;SDS011;32137;48.728;9.142;2023-05-01T03:45:10;19.58;;;9.77;;
46437;SDS011;32137;48.728;9.142;2023-05-01T03:47:35;11.75;;;8.98;;
46437;SDS011;32137;48.728;9.142;2023-05-01T03:50:01;12.07;;;8.48;;
46437;SDS011;32137;48.728;9.142;2023-05-01T03:52:27;15.10;;;8.90;;
46437;SDS011;32137;48.728;9.142;2023-05-01T03:54:52;9.73;;;8.27;;
46437;SDS011;32137;48.728;9.142;2023-05-01T03:57:18;14.73;;;8.38;;
46437;SDS011;32137;48.728;9.142;2023-05-01T03:59:50;13.50;;;9.35;;
46437;SDS011;32137;48.728;9.142;2023-05-01T04:02:16;11.93;;;7.93;;
46437;SDS011;32137;48.728;9.142;2023-05-01T04:04:42;11.25;;;8.63;;
46437;SDS011;32137;48.728;9.142;2023-05-01T04:07:08;13.43;;;9.60;;
46437;SDS011;32137;48.728;9.142;2023-05-01T04:09:33;14.77;;;7.90;;
46437;SDS011;32137;48.728;9.142;2023-05-01T04:11:59;12.95;;;9.27;;
46437;SDS011;32137;48.728;9.142;2023-05-01T04:14:26;14.85;;;9.60;;
46437;SDS011;32137;48.728;9.142;2023-05-01T04:16:51;13.27;;;8.20;;
46437;SDS011;32137;48.728;9.142;2023-05-01T04:19:17;13.98;;;9.30;;
46437;SDS011;32137;48.728;9.142;2023-05-01T04:21:42;12.93;;;8.85;;
46437;SDS011;32137;48.728;9.142;2023-05-01T04:24:08;14.30;;;8.95;;
46437;SDS011;32137;48.728;9.142;2023-05-01T04:26:33;11.52;;;8.30;;
46437;SDS011;32137;48.728;9.142;2023-05-01T04:28:59;12.55;;;8.52;;
46437;SDS011;32137;48.728;9.142;2023-05-01T04:31:25;15.48;;;8.20;;
46437;SDS011;32137;48.728;9.142;2023-05-01T04:33:51;13.73;;;9.30;;
46437;SDS011;32137;48.728;9.142;2023-05-01T04:36:16;15.07;;;8.77;;
46437;SDS011;32137;48.728;9.142;2023-05-01T04:38:42;14.25;;;8.68;;
46437;SDS011;32137;48.728;9.142;2023-05-01T04:41:08;9.82;;;7.70;;
46437;SDS011;32137;48.728;9.142;2023-05-01T04:43:33;13.63;;;8.60;;
46437;SDS011;32137;48.728;9.142;2023-05-01T04:45:59;12.25;;;8.80;;
46437;SDS011;32137;48.728;9.142;2023-05-01T04:48:25;12.00;;;8.20;;
46437;SDS011;32137;48.728;9.142;2023-05-01T04:50:50;10.30;;;8.43;;
46437;SDS011;32137;48.728;9.142;2023-05-01T04:53:16;15.73;;;8.48;;
46437;SDS011;32137;48.728;9.142;2023-05-01T04:55:41;11.38;;;8.13;;
46437;SDS011;32137;48.728;9.142;2023-05-01T04:58:07;15.27;;;8.70;;
46437;SDS011;32137;48.728;9.142;2023-05-01T05:00:32;14.23;;;8.40;;
46437;SDS011;32137;48.728;9.142;2023-05-01T05:02:58;9.80;;;8.18;;
46437;SDS011;32137;48.728;9.142;2023-05-01T05:05:23;16.25;;;10.10;;
46437;SDS011;32137;48.728;9.142;2023-05-01T05:07:49;11.35;;;8.98;;
46437;SDS011;32137;48.728;9.142;2023-05-01T05:10:14;10.18;;;7.72;;
46437;SDS011;32137;48.728;9.142;2023-05-01T05:12:40;10.95;;;7.63;;
46437;SDS011;32137;48.728;9.142;2023-05-01T05:15:06;10.32;;;7.63;;
46437;SDS011;32137;48.728;9.142;2023-05-01T05:17:32;15.15;;;7.88;;
46437;SDS011;32137;48.728;9.142;2023-05-01T05:19:57;12.27;;;8.45;;
46437;SDS011;32137;48.728;9.142;2023-05-01T05:22:23;11.13;;;8.55;;
46437;SDS011;32137;48.728;9.142;2023-05-01T05:24:53;13.15;;;9.25;;
46437;SDS011;32137;48.728;9.142;2023-05-01T05:27:28;13.02;;;9.00;;
46437;SDS011;32137;48.728;9.142;2023-05-01T05:29:53;15.55;;;10.35;;
46437;SDS011;32137;48.728;9.142;2023-05-01T05:32:19;11.68;;;9.23;;
46437;SDS011;32137;48.728;9.142;2023-05-01T05:34:44;12.63;;;8.75;;
46437;SDS011;32137;48.728;9.142;2023-05-01T05:37:11;10.45;;;8.10;;
46437;SDS011;32137;48.728;9.142;2023-05-01T05:39:36;11.15;;;8.98;;
46437;SDS011;32137;48.728;9.142;2023-05-01T05:42:02;13.30;;;9.25;;
46437;SDS011;32137;48.728;9.142;2023-05-01T05:44:28;12.98;;;9.20;;
46437;SDS011;32137;48.728;9.142;2023-05-01T05:46:53;14.40;;;10.00;;
46437;SDS011;32137;48.728;9.142;2023-05-01T05:49:19;12.10;;;9.45;;
46437;SDS011;32137;48.728;9.142;2023-05-01T05:51:45;14.20;;;8.68;;
46437;SDS011;32137;48.728;9.142;2023-05-01T05:54:10;15.65;;;8.55;;
46437;SDS011;32137;48.728;9.142;2023-05-01T05:56:36;8.88;;;7.60;;
46437;SDS011;32137;48.728;9.142;2023-05-01T05:59:01;10.35;;;7.95;;
46437;SDS011;32137;48.728;9.142;2023-05-01T06:01:28;10.20;;;8.35;;
46437;SDS011;32137;48.728;9.142;2023-05-01T06:03:54;11.55;;;7.88;;
46437;SDS011;32137;48.728;9.142;2023-05-01T06:06:20;11.80;;;7.43;;
46437;SDS011;32137;48.728;9.142;2023-05-01T06:08:46;13.40;;;8.25;;
46437;SDS011;32137;48.728;9.142;2023-05-01T06:11:11;11.55;;;8.38;;
46437;SDS011;32137;48.728;9.142;2023-05-01T06:13:37;10.52;;;7.22;;
46437;SDS011;32137;48.728;9.142;2023-05-01T06:16:02;9.98;;;7.47;;
46437;SDS011;32137;48.728;9.142;2023-05-01T06:18:28;9.40;;;7.65;;
46437;SDS011;32137;48.728;9.142;2023-05-01T06:20:54;18.40;;;7.05;;
46437;SDS011;32137;48.728;9.142;2023-05-01T06:23:20;10.68;;;7.63;;
46437;SDS011;32137;48.728;9.142;2023-05-01T06:25:45;11.15;;;7.15;;
46437;SDS011;32137;48.728;9.142;2023-05-01T06:28:12;10.32;;;7.35;;
46437;SDS011;32137;48.728;9.142;2023-05-01T06:30:38;10.93;;;7.30;;
46437;SDS011;32137;48.728;9.142;2023-05-01T06:33:04;9.60;;;7.63;;
46437;SDS011;32137;48.728;9.142;2023-05-01T06:35:29;11.27;;;8.07;;
46437;SDS011;32137;48.728;9.142;2023-05-01T06:37:55;10.27;;;7.55;;
46437;SDS011;32137;48.728;9.142;2023-05-01T06:40:21;10.07;;;7.30;;
46437;SDS011;32137;48.728;9.142;2023-05-01T06:42:46;9.05;;;6.70;;
46437;SDS011;32137;48.728;9.142;2023-05-01T06:45:12;7.93;;;6.13;;
46437;SDS011;32137;48.728;9.142;2023-05-01T06:47:38;9.18;;;6.75;;
46437;SDS011;32137;48.728;9.142;2023-05-01T06:50:03;10.05;;;6.65;;
46437;SDS011;32137;48.728;9.142;2023-05-01T06:52:29;8.43;;;6.50;;
46437;SDS011;32137;48.728;9.142;2023-05-01T06:54:55;7.70;;;6.78;;
46437;SDS011;32137;48.728;9.142;2023-05-01T06:57:20;8.60;;;7.22;;
46437;SDS011;32137;48.728;9.142;2023-05-01T06:59:46;12.00;;;7.05;;
46437;SDS011;32137;48.728;9.142;2023-05-01T07:02:12;9.43;;;6.68;;
46437;SDS011;32137;48.728;9.142;2023-05-01T07:04:37;8.85;;;7.00;;
46437;SDS011;32137;48.728;9.142;2023-05-01T07:07:03;8.55;;;7.20;;
46437;SDS011;32137;48.728;9.142;2023-05-01T07:09:28;10.10;;;7.53;;
46437;SDS011;32137;48.728;9.142;2023-05-01T07:11:54;9.68;;;7.72;;
46437;SDS011;32137;48.728;9.142;2023-05-01T07:14:21;7.95;;;6.85;;
46437;SDS011;32137;48.728;9.142;2023-05-01T07:16:47;9.30;;;7.47;;
46437;SDS011;32137;48.728;9.142;2023-05-01T07:19:13;10.38;;;7.72;;
46437;SDS011;32137;48.728;9.142;2023-05-01T07:21:39;7.85;;;6.68;;
46437;SDS011;32137;48.728;9.142;2023-05-01T07:24:05;7.90;;;6.25;;
46437;SDS011;32137;48.728;9.142;2023-05-01T07:26:30;10.07;;;7.10;;
46437;SDS011;32137;48.728;9.142;2023-05-01T07:28:56;10.93;;;7.25;;
46437;SDS011;32137;48.728;9.142;2023-05-01T07:31:22;11.48;;;8.15;;
46437;SDS011;32137;48.728;9.142;2023-05-01T07:33:47;9.40;;;7.82;;
46437;SDS011;32137;48.728;9.142;2023-05-01T07:36:13;8.23;;;7.00;;
46437;SDS011;32137;48.728;9.142;2023-05-01T07:38:38;10.88;;;8.07;;
46437;SDS011;32137;48.728;9.142;2023-05-01T07:41:04;8.80;;;7.40;;
46437;SDS011;32137;48.728;9.142;2023-05-01T07:43:30;12.52;;;7.85;;
46437;SDS011;32137;48.728;9.142;2023-05-01T07:45:56;8.90;;;7.15;;
46437;SDS011;32137;48.728;9.142;2023-05-01T07:48:24;9.77;;;6.80;;
46437;SDS011;32137;48.728;9.142;2023-05-01T07:50:50;7.93;;;6.20;;
46437;SDS011;32137;48.728;9.142;2023-05-01T07:53:16;9.02;;;7.25;;
46437;SDS011;32137;48.728;9.142;2023-05-01T07:55:42;7.50;;;6.70;;
46437;SDS011;32137;48.728;9.142;2023-05-01T07:58:07;12.63;;;7.72;;
46437;SDS011;32137;48.728;9.142;2023-05-01T08:00:42;10.50;;;6.63;;
46437;SDS011;32137;48.728;9.142;2023-05-01T08:03:17;10.35;;;5.72;;
46437;SDS011;32137;48.728;9.142;2023-05-01T08:05:44;8.55;;;6.43;;
46437;SDS011;32137;48.728;9.142;2023-05-01T08:08:11;9.82;;;6.90;;
46437;SDS011;32137;48.728;9.142;2023-05-01T08:13:08;9.02;;;6.43;;
46437;SDS011;32137;48.728;9.142;2023-05-01T08:15:34;8.27;;;6.90;;
46437;SDS011;32137;48.728;9.142;2023-05-01T08:18:02;12.65;;;7.25;;
46437;SDS011;32137;48.728;9.142;2023-05-01T08:20:28;7.45;;;6.45;;
46437;SDS011;32137;48.728;9.142;2023-05-01T08:22:56;7.75;;;6.35;;
46437;SDS011;32137;48.728;9.142;2023-05-01T08:26:03;8.80;;;6.10;;
46437;SDS011;32137;48.728;9.142;2023-05-01T08:28:28;11.50;;;7.60;;
46437;SDS011;32137;48.728;9.142;2023-05-01T08:30:54;8.10;;;6.53;;
46437;SDS011;32137;48.728;9.142;2023-05-01T08:33:20;9.63;;;6.10;;
46437;SDS011;32137;48.728;9.142;2023-05-01T08:35:45;8.35;;;6.32;;
46437;SDS011;32137;48.728;9.142;2023-05-01T08:38:13;7.32;;;6.20;;
46437;SDS011;32137;48.728;9.142;2023-05-01T08:40:39;7.63;;;5.78;;
46437;SDS011;32137;48.728;9.142;2023-05-01T08:43:08;9.88;;;6.93;;
46437;SDS011;32137;48.728;9.142;2023-05-01T08:45:34;7.70;;;6.15;;
46437;SDS011;32137;48.728;9.142;2023-05-01T08:48:04;8.77;;;6.28;;
46437;SDS011;32137;48.728;9.142;2023-05-01T08:50:32;10.30;;;6.55;;
46437;SDS011;32137;48.728;9.142;2023-05-01T08:53:02;8.23;;;6.07;;
46437;SDS011;32137;48.728;9.142;2023-05-01T08:55:29;8.50;;;5.78;;
46437;SDS011;32137;48.728;9.142;2023-05-01T08:57:56;9.13;;;5.88;;
46437;SDS011;32137;48.728;9.142;2023-05-01T09:00:23;8.77;;;6.00;;
46437;SDS011;32137;48.728;9.142;2023-05-01T09:02:50;8.38;;;5.50;;
46437;SDS011;32137;48.728;9.142;2023-05-01T09:05:19;9.52;;;6.85;;
46437;SDS011;32137;48.728;9.142;2023-05-01T09:07:45;6.78;;;5.38;;
46437;SDS011;32137;48.728;9.142;2023-05-01T09:10:12;6.90;;;5.18;;
46437;SDS011;32137;48.728;9.142;2023-05-01T09:12:40;6.30;;;5.18;;
46437;SDS011;32137;48.728;9.142;2023-05-01T09:15:08;11.02;;;6.10;;
46437;SDS011;32137;48.728;9.142;2023-05-01T09:17:35;6.88;;;5.72;;
46437;SDS011;32137;48.728;9.142;2023-05-01T09:20:02;6.47;;;5.78;;
46437;SDS011;32137;48.728;9.142;2023-05-01T09:22:30;7.90;;;6.30;;
46437;SDS011;32137;48.728;9.142;2023-05-01T09:24:57;7.93;;;6.00;;
46437;SDS011;32137;48.728;9.142;2023-05-01T09:27:23;8.65;;;6.22;;
46437;SDS011;32137;48.728;9.142;2023-05-01T09:29:50;5.63;;;4.68;;
46437;SDS011;32137;48.728;9.142;2023-05-01T09:32:17;8.88;;;5.32;;
46437;SDS011;32137;48.728;9.142;2023-05-01T09:34:45;10.65;;;5.32;;
46437;SDS011;32137;48.728;9.142;2023-05-01T09:37:12;7.93;;;5.55;;
46437;SDS011;32137;48.728;9.142;2023-05-01T09:40:10;5.55;;;4.60;;
46437;SDS011;32137;48.728;9.142;2023-05-01T09:42:39;5.70;;;5.05;;
46437;SDS011;32137;48.728;9.142;2023-05-01T09:45:15;9.30;;;5.40;;
46437;SDS011;32137;48.728;9.142;2023-05-01T09:47:42;6.05;;;5.05;;
46437;SDS011;32137;48.728;9.142;2023-05-01T09:50:09;11.60;;;5.13;;
46437;SDS011;32137;48.728;9.142;2023-05-01T09:52:37;6.63;;;4.88;;
46437;SDS011;32137;48.728;9.142;2023-05-01T09:55:16;8.75;;;5.82;;
46437;SDS011;32137;48.728;9.142;2023-05-01T09:57:43;6.88;;;4.60;;
46437;SDS011;32137;48.728;9.142;2023-05-01T10:00:14;6.60;;;4.72;;
46437;SDS011;32137;48.728;9.142;2023-05-01T10:02:42;6.50;;;5.28;;
46437;SDS011;32137;48.728;9.142;2023-05-01T10:05:09;5.60;;;4.35;;
46437;SDS011;32137;48.728;9.142;2023-05-01T10:07:35;6.25;;;4.20;;
46437;SDS011;32137;48.728;9.142;2023-05-01T10:10:14;8.05;;;4.78;;
46437;SDS011;32137;48.728;9.142;2023-05-01T10:12:46;7.03;;;4.32;;
46437;SDS011;32137;48.728;9.142;2023-05-01T10:15:13;5.00;;;4.50;;
46437;SDS011;32137;48.728;9.142;2023-05-01T10:17:40;6.45;;;4.45;;
46437;SDS011;32137;48.728;9.142;2023-05-01T10:20:07;4.78;;;4.32;;
46437;SDS011;32137;48.728;9.142;2023-05-01T10:22:37;7.90;;;4.00;;
46437;SDS011;32137;48.728;9.142;2023-05-01T10:25:06;8.40;;;4.78;;
46437;SDS011;32137;48.728;9.142;2023-05-01T10:27:38;6.53;;;4.68;;
46437;SDS011;32137;48.728;9.142;2023-05-01T10:30:05;7.60;;;4.85;;
46437;SDS011;32137;48.728;9.142;2023-05-01T10:32:37;9.40;;;5.43;;
46437;SDS011;32137;48.728;9.142;2023-05-01T10:35:10;9.27;;;6.30;;
46437;SDS011;32137;48.728;9.142;2023-05-01T10:37:47;10.13;;;5.63;;
46437;SDS011;32137;48.728;9.142;2023-05-01T10:48:54;15.70;;;8.82;;
46437;SDS011;32137;48.728;9.142;2023-05-01T10:51:24;7.32;;;5.82;;
46437;SDS011;32137;48.728;9.142;2023-05-01T10:54:20;9.85;;;6.82;;
46437;SDS011;32137;48.728;9.142;2023-05-01T10:56:46;6.57;;;5.72;;
46437;SDS011;32137;48.728;9.142;2023-05-01T10:59:12;6.95;;;5.05;;
46437;SDS011;32137;48.728;9.142;2023-05-01T11:01:38;9.35;;;5.93;;
46437;SDS011;32137;48.728;9.142;2023-05-01T11:09:39;8.32;;;6.28;;
46437;SDS011;32137;48.728;9.142;2023-05-01T11:12:06;7.45;;;5.55;;
46437;SDS011;32137;48.728;9.142;2023-05-01T11:14:59;7.22;;;6.30;;
46437;SDS011;32137;48.728;9.142;2023-05-01T11:20:06;10.25;;;5.93;;
46437;SDS011;32137;48.728;9.142;2023-05-01T11:22:32;7.25;;;5.95;;
46437;SDS011;32137;48.728;9.142;2023-05-01T11:25:00;7.75;;;6.18;;
46437;SDS011;32137;48.728;9.142;2023-05-01T11:27:28;10.40;;;6.93;;
46437;SDS011;32137;48.728;9.142;2023-05-01T11:29:55;9.20;;;6.97;;
46437;SDS011;32137;48.728;9.142;2023-05-01T11:32:25;8.80;;;7.07;;
46437;SDS011;32137;48.728;9.142;2023-05-01T11:34:52;9.30;;;6.30;;
46437;SDS011;32137;48.728;9.142;2023-05-01T11:37:18;8.13;;;6.18;;
46437;SDS011;32137;48.728;9.142;2023-05-01T11:39:50;12.32;;;7.07;;
46437;SDS011;32137;48.728;9.142;2023-05-01T11:42:20;9.13;;;6.95;;
46437;SDS011;32137;48.728;9.142;2023-05-01T11:45:08;8.90;;;6.47;;
46437;SDS011;32137;48.728;9.142;2023-05-01T11:47:40;9.90;;;7.13;;
46437;SDS011;32137;48.728;9.142;2023-05-01T11:50:06;9.48;;;6.70;;
46437;SDS011;32137;48.728;9.142;2023-05-01T11:52:42;13.88;;;6.78;;
46437;SDS011;32137;48.728;9.142;2023-05-01T11:55:09;13.40;;;7.18;;
46437;SDS011;32137;48.728;9.142;2023-05-01T12:00:14;9.10;;;7.10;;
46437;SDS011;32137;48.728;9.142;2023-05-01T12:02:59;17.00;;;11.13;;
46437;SDS011;32137;48.728;9.142;2023-05-01T12:05:27;12.68;;;8.32;;
46437;SDS011;32137;48.728;9.142;2023-05-01T12:08:15;9.70;;;7.78;;
46437;SDS011;32137;48.728;9.142;2023-05-01T12:10:43;10.57;;;7.45;;
46437;SDS011;32137;48.728;9.142;2023-05-01T12:13:11;11.20;;;8.50;;
46437;SDS011;32137;48.728;9.142;2023-05-01T12:15:39;10.02;;;8.40;;
46437;SDS011;32137;48.728;9.142;2023-05-01T12:18:12;13.20;;;8.32;;
46437;SDS011;32137;48.728;9.142;2023-05-01T12:20:42;10.18;;;9.10;;
46437;SDS011;32137;48.728;9.142;2023-05-01T12:23:13;9.05;;;7.85;;
46437;SDS011;32137;48.728;9.142;2023-05-01T12:25:43;11.18;;;8.57;;
46437;SDS011;32137;48.728;9.142;2023-05-01T12:30:43;9.52;;;7.30;;
46437;SDS011;32137;48.728;9.142;2023-05-01T12:33:11;9.93;;;8.02;;
46437;SDS011;32137;48.728;9.142;2023-05-01T12:35:39;10.32;;;7.30;;
46437;SDS011;32137;48.728;9.142;2023-05-01T12:38:09;11.73;;;7.88;;
46437;SDS011;32137;48.728;9.142;2023-05-01T12:40:37;10.48;;;8.05;;
46437;SDS011;32137;48.728;9.142;2023-05-01T12:43:03;10.38;;;8.25;;
46437;SDS011;32137;48.728;9.142;2023-05-01T12:45:29;10.38;;;7.65;;
46437;SDS011;32137;48.728;9.142;2023-05-01T12:48:08;8.95;;;7.53;;
46437;SDS011;32137;48.728;9.142;2023-05-01T12:50:40;10.45;;;7.38;;
46437;SDS011;32137;48.728;9.142;2023-05-01T12:53:06;10.45;;;8.40;;
46437;SDS011;32137;48.728;9.142;2023-05-01T12:55:46;9.57;;;7.68;;
46437;SDS011;32137;48.728;9.142;2023-05-01T12:58:15;10.10;;;7.88;;
46437;SDS011;32137;48.728;9.142;2023-05-01T13:00:46;8.15;;;6.50;;
46437;SDS011;32137;48.728;9.142;2023-05-01T13:03:13;9.70;;;7.78;;
46437;SDS011;32137;48.728;9.142;2023-05-01T13:05:54;9.50;;;8.10;;
46437;SDS011;32137;48.728;9.142;2023-05-01T13:08:30;13.02;;;9.18;;
46437;SDS011;32137;48.728;9.142;2023-05-01T13:11:00;10.07;;;8.32;;
46437;SDS011;32137;48.728;9.142;2023-05-01T13:13:33;10.05;;;8.85;;
46437;SDS011;32137;48.728;9.142;2023-05-01T13:16:03;12.90;;;9.38;;
46437;SDS011;32137;48.728;9.142;2023-05-01T13:18:30;16.38;;;11.38;;
46437;SDS011;32137;48.728;9.142;2023-05-01T13:21:06;23.92;;;15.18;;
46437;SDS011;32137;48.728;9.142;2023-05-01T13:23:35;30.10;;;19.65;;
46437;SDS011;32137;48.728;9.142;2023-05-01T13:26:01;28.60;;;20.63;;
46437;SDS011;32137;48.728;9.142;2023-05-01T13:28:28;28.73;;;21.48;;
46437;SDS011;32137;48.728;9.142;2023-05-01T13:30:55;29.35;;;24.05;;
46437;SDS011;32137;48.728;9.142;2023-05-01T13:33:21;47.20;;;31.77;;
46437;SDS011;32137;48.728;9.142;2023-05-01T13:35:47;53.80;;;33.85;;
46437;SDS011;32137;48.728;9.142;2023-05-01T13:38:13;55.45;;;33.72;;
46437;SDS011;32137;48.728;9.142;2023-05-01T13:40:40;90.72;;;40.42;;
46437;SDS011;32137;48.728;9.142;2023-05-01T13:43:08;130.02;;;47.25;;
46437;SDS011;32137;48.728;9.142;2023-05-01T13:48:03;190.95;;;59.60;;
46437;SDS011;32137;48.728;9.142;2023-05-01T13:50:29;250.70;;;76.85;;
46437;SDS011;32137;48.728;9.142;2023-05-01T13:52:54;283.33;;;83.65;;
46437;SDS011;32137;48.728;9.142;2023-05-01T13:55:20;282.48;;;82.65;;
46437;SDS011;32137;48.728;9.142;2023-05-01T13:57:47;303.40;;;87.00;;
46437;SDS011;32137;48.728;9.142;2023-05-01T14:00:14;306.75;;;84.13;;
46437;SDS011;32137;48.728;9.142;2023-05-01T14:02:42;287.73;;;81.85;;
46437;SDS011;32137;48.728;9.142;2023-05-01T14:05:09;354.02;;;96.88;;
46437;SDS011;32137;48.728;9.142;2023-05-01T14:07:38;398.33;;;108.68;;
46437;SDS011;32137;48.728;9.142;2023-05-01T14:10:24;263.83;;;85.43;;
46437;SDS011;32137;48.728;9.142;2023-05-01T14:12:58;327.38;;;95.07;;
46437;SDS011;32137;48.728;9.142;2023-05-01T14:15:23;304.08;;;93.68;;
46437;SDS011;32137;48.728;9.142;2023-05-01T14:17:49;320.90;;;97.57;;
46437;SDS011;32137;48.728;9.142;2023-05-01T14:20:15;353.52;;;100.55;;
46437;SDS011;32137;48.728;9.142;2023-05-01T14:22:42;275.15;;;84.97;;
46437;SDS011;32137;48.728;9.142;2023-05-01T14:27:51;257.92;;;80.82;;
46437;SDS011;32137;48.728;9.142;2023-05-01T14:30:21;276.48;;;86.07;;
46437;SDS011;32137;48.728;9.142;2023-05-01T14:32:52;249.05;;;79.32;;
46437;SDS011;32137;48.728;9.142;2023-05-01T14:35:19;237.38;;;81.55;;
46437;SDS011;32137;48.728;9.142;2023-05-01T14:37:46;117.82;;;53.20;;
46437;SDS011;32137;48.728;9.142;2023-05-01T14:40:11;164.18;;;56.45;;
46437;SDS011;32137;48.728;9.142;2023-05-01T14:42:41;105.18;;;44.95;;
46437;SDS011;32137;48.728;9.142;2023-05-01T14:45:11;91.75;;;38.95;;
46437;SDS011;32137;48.728;9.142;2023-05-01T14:47:39;82.20;;;36.22;;
46437;SDS011;32137;48.728;9.142;2023-05-01T14:50:07;78.97;;;37.45;;
46437;SDS011;32137;48.728;9.142;2023-05-01T14:52:36;108.53;;;43.88;;
46437;SDS011;32137;48.728;9.142;2023-05-01T14:55:03;113.20;;;45.08;;
46437;SDS011;32137;48.728;9.142;2023-05-01T14:57:28;108.85;;;44.70;;
46437;SDS011;32137;48.728;9.142;2023-05-01T14:59:54;116.90;;;45.75;;
46437;SDS011;32137;48.728;9.142;2023-05-01T15:02:20;100.18;;;45.58;;
46437;SDS011;32137;48.728;9.142;2023-05-01T15:04:45;101.95;;;44.80;;
46437;SDS011;32137;48.728;9.142;2023-05-01T15:07:11;154.23;;;52.22;;
46437;SDS011;32137;48.728;9.142;2023-05-01T15:09:39;148.10;;;53.42;;
46437;SDS011;32137;48.728;9.142;2023-05-01T15:12:05;169.15;;;61.28;;
46437;SDS011;32137;48.728;9.142;2023-05-01T15:14:31;208.40;;;64.15;;
46437;SDS011;32137;48.728;9.142;2023-05-01T15:16:56;177.43;;;59.60;;
46437;SDS011;32137;48.728;9.142;2023-05-01T15:19:22;101.60;;;42.58;;
46437;SDS011;32137;48.728;9.142;2023-05-01T15:21:48;69.88;;;30.42;;
46437;SDS011;32137;48.728;9.142;2023-05-01T15:24:14;82.63;;;32.60;;
46437;SDS011;32137;48.728;9.142;2023-05-01T15:26:39;56.60;;;26.00;;
46437;SDS011;32137;48.728;9.142;2023-05-01T15:29:05;151.23;;;45.75;;